createdAt,value
2023-03-10T00:02:26.480Z,87.04
2023-03-10T00:05:12.541Z,85.17
2023-03-10T00:07:58.310Z,87.68
2023-03-10T00:10:44.165Z,88.12
2023-03-10T00:13:47.711Z,88.03
2023-03-10T00:16:45.696Z,87.92
2023-03-10T00:19:31.754Z,86.24
2023-03-10T00:22:17.622Z,84.88
2023-03-10T00:25:03.563Z,84.30
2023-03-10T00:27:49.428Z,83.92
2023-03-10T00:30:35.242Z,82.46
2023-03-10T00:33:21.153Z,82.68
2023-03-10T00:36:06.970Z,82.80
2023-03-10T00:38:53.084Z,82.04
2023-03-10T00:41:39.048Z,80.46
2023-03-10T00:44:25.082Z,79.98
2023-03-10T00:47:10.901Z,79.79
2023-03-10T00:49:56.743Z,78.71
2023-03-10T00:52:42.598Z,77.79
2023-03-10T00:55:28.550Z,75.19
2023-03-10T00:58:14.330Z,74.32
2023-03-10T01:01:00.170Z,73.68
2023-03-10T01:03:46.053Z,73.03
2023-03-10T01:06:31.920Z,73.68
2023-03-10T01:09:17.673Z,73.82
2023-03-10T01:12:03.443Z,75.01
2023-03-10T01:14:49.282Z,74.28
2023-03-10T01:17:35.175Z,75.63
2023-03-10T01:20:21.006Z,75.74
2023-03-10T01:23:06.941Z,75.60
2023-03-10T01:25:52.781Z,76.50
2023-03-10T01:28:38.648Z,78.07
2023-03-10T01:31:24.611Z,77.67
2023-03-10T01:34:10.411Z,78.06
2023-03-10T01:36:56.280Z,79.83
2023-03-10T01:39:42.154Z,80.33
2023-03-10T01:42:27.976Z,81.27
2023-03-10T01:45:13.902Z,79.86
2023-03-10T01:47:59.759Z,81.76
2023-03-10T01:50:45.637Z,80.32
2023-03-10T01:53:31.579Z,81.38
2023-03-10T01:56:17.370Z,84.46
2023-03-10T01:59:03.292Z,86.58
2023-03-10T02:01:49.181Z,94.90
2023-03-10T02:04:34.820Z,98.90
2023-03-10T02:07:20.703Z,98.08
2023-03-10T02:10:06.407Z,96.10
2023-03-10T02:12:52.306Z,94.34
2023-03-10T02:15:38.205Z,92.53
2023-03-10T02:18:24.290Z,91.31
2023-03-10T02:21:10.612Z,89.88
2023-03-10T02:24:01.396Z,89.64
2023-03-10T02:26:47.614Z,87.57
2023-03-10T02:29:33.499Z,84.27
2023-03-10T02:32:19.534Z,82.85
2023-03-10T02:35:05.294Z,81.95
2023-03-10T02:37:51.230Z,82.50
2023-03-10T02:40:37.068Z,81.96
2023-03-10T02:43:22.909Z,82.32
2023-03-10T02:46:08.889Z,83.55
2023-03-10T02:48:54.987Z,79.43
2023-03-10T02:51:40.919Z,79.80
2023-03-10T02:54:26.801Z,80.95
2023-03-10T02:57:12.550Z,78.21
2023-03-10T02:59:58.456Z,77.99
2023-03-10T03:02:44.312Z,76.33
2023-03-10T03:05:30.215Z,73.81
2023-03-10T03:08:16.270Z,73.02
2023-03-10T03:11:02.080Z,71.90
2023-03-10T03:13:48.035Z,71.71
2023-03-10T03:16:34.009Z,71.65
2023-03-10T03:19:19.877Z,70.54
2023-03-10T03:22:05.842Z,70.20
2023-03-10T03:24:51.776Z,69.96
2023-03-10T03:27:37.772Z,69.33
2023-03-10T03:30:23.846Z,70.77
2023-03-10T03:33:09.733Z,72.45
2023-03-10T03:35:55.668Z,70.57
2023-03-10T03:38:41.443Z,70.82
2023-03-10T03:41:27.200Z,72.21
2023-03-10T03:44:13.081Z,71.55
2023-03-10T03:46:58.890Z,69.60
2023-03-10T03:49:44.804Z,69.05
2023-03-10T03:52:30.525Z,68.93
2023-03-10T03:55:16.379Z,68.50
2023-03-10T03:58:02.252Z,68.21
2023-03-10T04:00:49.785Z,68.03
2023-03-10T04:03:37.425Z,66.87
2023-03-10T04:06:23.330Z,67.06
2023-03-10T04:09:09.178Z,67.91
2023-03-10T04:11:55.047Z,66.68
2023-03-10T04:14:40.941Z,67.71
2023-03-10T04:17:26.756Z,67.02
2023-03-10T04:20:12.727Z,66.91
2023-03-10T04:22:58.712Z,66.80
2023-03-10T04:25:44.548Z,67.52
2023-03-10T04:28:30.505Z,66.68
2023-03-10T04:31:16.582Z,66.13
2023-03-10T04:34:02.556Z,66.38
2023-03-10T04:36:48.595Z,67.08
2023-03-10T04:39:34.377Z,68.69
2023-03-10T04:42:20.373Z,68.99
2023-03-10T04:45:06.292Z,68.93
2023-03-10T04:47:52.207Z,68.80
2023-03-10T04:50:37.981Z,67.55
2023-03-10T04:53:23.731Z,68.68
2023-03-10T04:56:09.682Z,68.80
2023-03-10T04:58:55.546Z,68.15
2023-03-10T05:01:41.458Z,65.65
2023-03-10T05:04:27.732Z,65.25
2023-03-10T05:07:13.498Z,65.15
2023-03-10T05:09:59.233Z,70.69
2023-03-10T05:12:45.208Z,75.82
2023-03-10T05:15:30.844Z,77.06
2023-03-10T05:18:18.814Z,80.26
2023-03-10T05:21:04.641Z,81.29
2023-03-10T05:23:50.381Z,86.11
2023-03-10T05:26:36.321Z,94.86
2023-03-10T05:29:22.183Z,96.27
2023-03-10T05:32:08.156Z,95.90
2023-03-10T05:34:54.192Z,92.78
2023-03-10T05:37:39.987Z,91.07
2023-03-10T05:40:25.921Z,89.63
2023-03-10T05:43:11.888Z,83.95
2023-03-10T05:45:57.642Z,82.73
2023-03-10T05:48:43.502Z,81.28
2023-03-10T05:51:29.309Z,80.99
2023-03-10T05:54:15.201Z,81.27
2023-03-10T05:57:01.170Z,83.52
2023-03-10T05:59:46.906Z,86.01
2023-03-10T06:02:32.839Z,86.25
2023-03-10T06:05:18.673Z,83.56
2023-03-10T06:08:04.505Z,85.03
2023-03-10T06:10:50.252Z,84.81
2023-03-10T06:13:36.068Z,87.24
2023-03-10T06:16:22.000Z,89.54
2023-03-10T06:19:07.926Z,85.32
2023-03-10T06:21:53.805Z,85.27
2023-03-10T06:24:39.878Z,87.85
2023-03-10T06:27:25.725Z,91.40
2023-03-10T06:30:11.503Z,95.37
2023-03-10T06:32:57.457Z,99.12
2023-03-10T06:35:45.301Z,99.52
2023-03-10T06:38:31.173Z,96.81
2023-03-10T06:41:16.957Z,95.27
2023-03-10T06:44:02.737Z,95.25
2023-03-10T06:46:48.636Z,94.07
2023-03-10T06:49:34.636Z,89.95
2023-03-10T06:52:20.481Z,89.63
2023-03-10T06:55:06.357Z,86.53
2023-03-10T06:57:52.121Z,85.41
2023-03-10T07:00:38.019Z,82.56
2023-03-10T07:03:23.848Z,80.56
2023-03-10T07:06:09.617Z,73.78
2023-03-10T07:08:55.474Z,71.33
2023-03-10T07:11:41.342Z,71.62
2023-03-10T07:14:27.276Z,70.99
2023-03-10T07:17:13.343Z,75.17
2023-03-10T07:19:59.208Z,80.68
2023-03-10T07:22:45.232Z,79.54
2023-03-10T07:25:31.095Z,75.81
2023-03-10T07:28:16.893Z,74.15
2023-03-10T07:31:02.876Z,71.83
2023-03-10T07:33:48.649Z,75.21
2023-03-10T07:36:34.424Z,69.02
2023-03-10T07:39:20.404Z,70.25
2023-03-10T07:42:06.202Z,70.29
2023-03-10T07:44:52.060Z,71.01
2023-03-10T07:47:37.989Z,68.88
2023-03-10T07:50:23.795Z,70.45
2023-03-10T07:53:09.661Z,69.14
2023-03-10T07:55:55.465Z,69.99
2023-03-10T07:58:41.284Z,67.31
2023-03-10T08:01:27.098Z,68.87
2023-03-10T08:04:12.986Z,69.05
2023-03-10T08:07:01.029Z,71.51
2023-03-10T08:09:46.887Z,71.95
2023-03-10T08:12:32.777Z,72.37
2023-03-10T08:15:18.584Z,72.93
2023-03-10T08:18:04.308Z,74.10
2023-03-10T08:20:50.269Z,73.72
2023-03-10T08:23:36.790Z,76.16
2023-03-10T08:26:22.891Z,77.38
2023-03-10T08:29:08.767Z,76.38
2023-03-10T08:31:54.678Z,78.29
2023-03-10T08:34:40.620Z,77.54
2023-03-10T08:37:26.376Z,77.49
2023-03-10T08:40:12.100Z,78.56
2023-03-10T08:42:58.056Z,79.90
2023-03-10T08:45:44.083Z,81.89
2023-03-10T08:48:29.959Z,83.56
2023-03-10T08:51:16.618Z,86.21
2023-03-10T08:54:02.714Z,87.24
2023-03-10T08:56:48.622Z,87.32
2023-03-10T08:59:34.566Z,89.29
2023-03-10T09:02:20.599Z,91.71
2023-03-10T09:05:06.723Z,91.00
2023-03-10T09:07:52.713Z,90.63
2023-03-10T09:10:38.463Z,90.86
2023-03-10T09:13:24.289Z,92.04
2023-03-10T09:16:11.421Z,89.76
2023-03-10T09:18:57.494Z,89.12
2023-03-10T09:21:43.350Z,87.22
2023-03-10T09:24:29.210Z,88.44
2023-03-10T09:27:15.180Z,87.65
2023-03-10T09:30:01.603Z,83.83
2023-03-10T09:32:47.810Z,86.32
2023-03-10T09:35:33.765Z,83.53
2023-03-10T09:38:19.824Z,81.40
2023-03-10T09:41:08.355Z,79.55
2023-03-10T09:43:55.528Z,79.24
2023-03-10T09:46:41.818Z,81.02
2023-03-10T09:49:27.554Z,82.40
2023-03-10T09:52:15.589Z,81.66
2023-03-10T09:55:02.661Z,83.57
2023-03-10T09:57:48.387Z,84.52
2023-03-10T10:00:34.275Z,84.05
2023-03-10T10:03:20.201Z,82.27
2023-03-10T10:06:06.035Z,85.04
2023-03-10T10:09:03.447Z,83.12
2023-03-10T10:11:49.844Z,83.75
2023-03-10T10:14:38.401Z,81.90
2023-03-10T10:17:26.251Z,84.90
2023-03-10T10:20:12.247Z,83.62
2023-03-10T10:22:58.232Z,84.59
2023-03-10T10:25:44.139Z,83.99
2023-03-10T10:28:29.916Z,82.84
2023-03-10T10:31:15.832Z,84.13
2023-03-10T10:34:01.803Z,86.41
2023-03-10T10:36:47.690Z,86.30
2023-03-10T10:39:33.609Z,87.38
2023-03-10T10:42:21.580Z,90.59
2023-03-10T10:45:07.441Z,93.59
2023-03-10T10:47:53.310Z,92.69
2023-03-10T10:50:38.990Z,91.50
2023-03-10T10:53:24.976Z,91.51
2023-03-10T10:56:10.874Z,88.88
2023-03-10T10:58:56.704Z,89.63
2023-03-10T11:01:42.554Z,91.30
2023-03-10T11:04:28.469Z,91.65
2023-03-10T11:07:14.381Z,89.76
2023-03-10T11:10:00.248Z,93.18
2023-03-10T11:12:46.072Z,93.33
2023-03-10T11:15:31.968Z,95.10
2023-03-10T11:18:17.801Z,94.77
2023-03-10T11:21:03.715Z,93.93
2023-03-10T11:23:49.536Z,91.12
2023-03-10T11:26:35.381Z,89.10
2023-03-10T11:29:21.292Z,88.80
2023-03-10T11:32:07.498Z,88.22
2023-03-10T11:34:53.311Z,90.43
2023-03-10T11:37:39.309Z,89.74
2023-03-10T11:40:25.093Z,90.49
2023-03-10T11:43:11.014Z,88.18
2023-03-10T11:45:56.980Z,90.47
2023-03-10T11:48:42.729Z,91.37
2023-03-10T11:51:28.713Z,90.23
2023-03-10T11:54:14.646Z,90.38
2023-03-10T11:57:00.512Z,92.73
2023-03-10T11:59:46.432Z,91.42
2023-03-10T12:02:32.248Z,91.45
2023-03-10T12:05:18.141Z,89.46
2023-03-10T12:08:04.167Z,87.29
2023-03-10T12:10:49.949Z,86.61
2023-03-10T12:13:35.743Z,84.35
2023-03-10T12:16:21.774Z,82.27
2023-03-10T12:19:07.708Z,79.49
2023-03-10T12:21:53.598Z,79.49
2023-03-10T12:24:39.442Z,76.55
2023-03-10T12:27:25.355Z,78.04
2023-03-10T12:30:11.246Z,72.64
2023-03-10T12:32:57.174Z,75.34
2023-03-10T12:35:43.251Z,78.05
2023-03-10T12:38:29.185Z,79.46
2023-03-10T12:41:15.177Z,78.29
2023-03-10T12:44:01.101Z,79.71
2023-03-10T12:46:47.078Z,81.22
2023-03-10T12:49:33.297Z,84.38
2023-03-10T12:52:19.151Z,80.03
2023-03-10T12:55:05.066Z,82.04
2023-03-10T12:57:50.936Z,79.27
2023-03-10T13:00:36.970Z,77.74
2023-03-10T13:03:23.020Z,77.27
2023-03-10T13:06:08.932Z,77.13
2023-03-10T13:08:54.799Z,75.21
2023-03-10T13:11:40.716Z,74.09
2023-03-10T13:14:26.529Z,75.43
2023-03-10T13:17:12.351Z,75.50
2023-03-10T13:19:58.172Z,72.60
2023-03-10T13:22:43.919Z,69.65
2023-03-10T13:25:29.851Z,68.97
2023-03-10T13:28:15.822Z,72.83
2023-03-10T13:31:01.594Z,70.21
2023-03-10T13:33:53.270Z,71.65
2023-03-10T13:36:39.952Z,73.11
2023-03-10T13:39:27.604Z,71.59
2023-03-10T13:42:13.686Z,70.40
2023-03-10T13:44:59.546Z,68.74
2023-03-10T13:47:45.385Z,70.30
2023-03-10T13:50:31.295Z,68.22
2023-03-10T13:53:16.995Z,67.68
2023-03-10T13:56:02.732Z,67.98
2023-03-10T13:58:48.674Z,67.91
2023-03-10T14:01:34.796Z,70.35
2023-03-10T14:04:21.010Z,70.62
2023-03-10T14:07:06.848Z,70.38
2023-03-10T14:09:52.610Z,68.56
2023-03-10T14:12:38.404Z,66.19
2023-03-10T14:15:24.540Z,67.89
2023-03-10T14:18:10.342Z,65.68
2023-03-10T14:20:56.131Z,65.20
2023-03-10T14:23:42.088Z,64.86
2023-03-10T14:26:27.955Z,64.55
2023-03-10T14:29:13.818Z,63.99
2023-03-10T14:31:59.648Z,65.88
2023-03-10T14:34:45.488Z,63.90
2023-03-10T14:37:31.370Z,64.82
2023-03-10T14:40:17.261Z,63.86
2023-03-10T14:43:03.142Z,64.57
2023-03-10T14:45:49.121Z,63.74
2023-03-10T14:48:35.331Z,62.36
2023-03-10T14:51:34.624Z,60.96
2023-03-10T14:54:21.275Z,60.85
2023-03-10T14:57:07.086Z,60.92
2023-03-10T14:59:52.859Z,61.58
2023-03-10T15:02:38.750Z,62.17
2023-03-10T15:05:27.570Z,61.90
2023-03-10T15:08:15.930Z,60.99
2023-03-10T15:11:01.748Z,61.15
2023-03-10T15:13:47.771Z,61.32
2023-03-10T15:16:33.775Z,59.99
2023-03-10T15:19:19.684Z,61.87
2023-03-10T15:22:05.537Z,61.14
2023-03-10T15:24:51.238Z,61.54
2023-03-10T15:27:37.207Z,59.82
2023-03-10T15:30:23.131Z,60.93
2023-03-10T15:33:09.018Z,59.52
2023-03-10T15:35:54.854Z,57.98
2023-03-10T15:38:40.773Z,57.99
2023-03-10T15:41:26.678Z,58.06
2023-03-10T15:44:12.582Z,57.13
2023-03-10T15:46:58.530Z,56.67
2023-03-10T15:49:44.657Z,57.71
2023-03-10T15:52:30.658Z,57.64
2023-03-10T15:55:16.445Z,54.06
2023-03-10T15:58:02.418Z,56.13
2023-03-10T16:00:48.255Z,57.90
2023-03-10T16:03:34.161Z,57.54
2023-03-10T16:06:20.054Z,57.22
2023-03-10T16:09:08.630Z,57.42
2023-03-10T16:11:54.905Z,58.05
2023-03-10T16:14:40.815Z,57.51
2023-03-10T16:17:26.656Z,56.68
2023-03-10T16:20:12.686Z,56.47
2023-03-10T16:22:58.531Z,56.22
2023-03-10T16:25:44.262Z,56.96
2023-03-10T16:28:30.210Z,55.35
2023-03-10T16:31:16.164Z,55.46
2023-03-10T16:34:02.218Z,55.64
2023-03-10T16:36:48.137Z,56.45
2023-03-10T16:39:34.004Z,56.78
2023-03-10T16:42:20.004Z,56.90
2023-03-10T16:45:05.936Z,55.73
2023-03-10T16:47:51.802Z,56.06
2023-03-10T16:50:37.738Z,56.15
2023-03-10T16:53:23.473Z,56.67
2023-03-10T16:56:09.500Z,56.87
2023-03-10T16:58:55.358Z,56.89
2023-03-10T17:01:41.151Z,56.88
2023-03-10T17:04:27.087Z,57.13
2023-03-10T17:07:12.834Z,56.66
2023-03-10T17:09:58.679Z,56.16
2023-03-10T17:12:44.690Z,55.99
2023-03-10T17:15:30.586Z,56.52
2023-03-10T17:18:16.528Z,56.03
2023-03-10T17:21:02.481Z,56.15
2023-03-10T17:23:48.295Z,57.02
2023-03-10T17:26:34.228Z,56.55
2023-03-10T17:29:20.065Z,56.92
2023-03-10T17:32:06.052Z,58.52
2023-03-10T17:34:51.987Z,57.38
2023-03-10T17:37:37.773Z,57.74
2023-03-10T17:40:23.688Z,58.10
2023-03-10T17:43:23.255Z,57.41
2023-03-10T17:46:15.738Z,56.66
2023-03-10T17:49:01.819Z,55.88
2023-03-10T17:51:47.924Z,57.39
2023-03-10T17:54:33.702Z,58.14
2023-03-10T17:57:19.770Z,57.99
2023-03-10T18:00:05.719Z,57.96
2023-03-10T18:02:51.627Z,58.10
2023-03-10T18:05:37.498Z,59.64
2023-03-10T18:08:23.202Z,59.31
2023-03-10T18:11:09.068Z,60.67
2023-03-10T18:13:57.052Z,60.93
2023-03-10T18:16:42.794Z,60.68
2023-03-10T18:19:28.778Z,60.77
2023-03-10T18:22:14.742Z,60.06
2023-03-10T18:25:00.702Z,60.19
2023-03-10T18:27:46.677Z,60.95
2023-03-10T18:30:32.479Z,61.91
2023-03-10T18:33:18.289Z,64.17
2023-03-10T18:36:04.152Z,64.32
2023-03-10T18:38:49.987Z,65.14
2023-03-10T18:41:36.028Z,66.47
2023-03-10T18:44:21.942Z,67.79
2023-03-10T18:47:07.751Z,68.14
2023-03-10T18:49:53.566Z,70.43
2023-03-10T18:52:39.486Z,71.38
2023-03-10T18:55:25.312Z,72.53
2023-03-10T18:58:11.257Z,73.63
2023-03-10T19:00:57.086Z,74.37
2023-03-10T19:03:43.065Z,75.16
2023-03-10T19:06:28.873Z,76.04
2023-03-10T19:09:14.802Z,77.11
2023-03-10T19:12:00.636Z,75.45
2023-03-10T19:14:46.431Z,76.88
2023-03-10T19:17:32.337Z,78.45
2023-03-10T19:20:18.276Z,78.48
2023-03-10T19:23:04.006Z,79.35
2023-03-10T19:25:49.850Z,82.11
2023-03-10T19:28:35.555Z,85.22
2023-03-10T19:31:21.581Z,86.63
2023-03-10T19:34:07.550Z,88.06
2023-03-10T19:36:53.373Z,89.50
2023-03-10T19:39:39.237Z,92.85
2023-03-10T19:42:25.178Z,94.71
2023-03-10T19:45:11.013Z,96.94
2023-03-10T19:47:57.062Z,97.19
2023-03-10T19:50:42.887Z,95.67
2023-03-10T19:53:28.930Z,97.83
2023-03-10T19:56:14.928Z,98.49
2023-03-10T19:59:00.756Z,97.86
2023-03-10T20:01:46.726Z,96.60
2023-03-10T20:04:32.628Z,95.47
2023-03-10T20:07:18.542Z,93.70
2023-03-10T20:10:04.469Z,94.76
2023-03-10T20:12:50.297Z,95.03
2023-03-10T20:15:36.074Z,92.75
2023-03-10T20:18:21.960Z,92.28
2023-03-10T20:21:07.767Z,93.70
2023-03-10T20:23:55.850Z,91.87
2023-03-10T20:26:42.354Z,92.55
2023-03-10T20:29:28.156Z,92.54
2023-03-10T20:32:14.116Z,91.64
2023-03-10T20:35:00.068Z,91.05
2023-03-10T20:37:46.030Z,91.87
2023-03-10T20:40:31.892Z,92.75
2023-03-10T20:43:17.603Z,94.21
2023-03-10T20:46:03.486Z,93.26
2023-03-10T20:48:49.455Z,92.24
2023-03-10T20:51:35.405Z,96.39
2023-03-10T20:54:21.207Z,95.14
2023-03-10T20:57:07.164Z,95.87
2023-03-10T20:59:53.389Z,98.04
2023-03-10T21:02:39.390Z,97.58
2023-03-10T21:05:25.262Z,97.79
2023-03-10T21:08:11.181Z,100.00
2023-03-10T21:10:56.924Z,98.67
2023-03-10T21:13:42.766Z,98.01
2023-03-10T21:16:28.827Z,95.79
2023-03-10T21:19:14.590Z,96.00
2023-03-10T21:22:03.160Z,96.79
2023-03-10T21:24:49.459Z,92.57
2023-03-10T21:27:35.163Z,91.70
2023-03-10T21:30:21.098Z,92.59
2023-03-10T21:33:07.176Z,94.38
2023-03-10T21:35:53.093Z,91.82
2023-03-10T21:38:38.978Z,93.75
2023-03-10T21:41:24.778Z,93.00
2023-03-10T21:44:10.552Z,93.32
2023-03-10T21:46:56.415Z,93.69
2023-03-10T21:49:42.213Z,91.68
2023-03-10T21:52:27.968Z,90.70
2023-03-10T21:55:13.873Z,88.52
2023-03-10T21:57:59.653Z,88.33
2023-03-10T22:00:45.540Z,86.06
2023-03-10T22:03:31.301Z,88.00
2023-03-10T22:06:17.248Z,90.18
2023-03-10T22:09:05.223Z,90.50
2023-03-10T22:11:50.924Z,91.69
2023-03-10T22:14:36.899Z,93.94
2023-03-10T22:17:22.804Z,92.86
2023-03-10T22:20:08.674Z,94.62
2023-03-10T22:22:54.514Z,92.69
2023-03-10T22:25:40.314Z,89.43
2023-03-10T22:28:26.125Z,89.39
2023-03-10T22:31:12.135Z,91.24
2023-03-10T22:33:59.061Z,92.51
2023-03-10T22:36:44.894Z,93.19
2023-03-10T22:39:30.769Z,90.00
2023-03-10T22:42:16.623Z,91.09
2023-03-10T22:45:02.501Z,90.05
2023-03-10T22:47:48.415Z,89.76
2023-03-10T22:50:34.295Z,89.46
2023-03-10T22:53:20.153Z,89.48
2023-03-10T22:56:05.969Z,88.45
2023-03-10T22:58:51.944Z,86.49
2023-03-10T23:01:37.794Z,86.67
2023-03-10T23:04:23.658Z,85.96
2023-03-10T23:07:09.484Z,86.35
2023-03-10T23:09:55.189Z,88.65
2023-03-10T23:12:40.998Z,89.52
2023-03-10T23:15:26.964Z,90.68
2023-03-10T23:18:12.774Z,92.52
2023-03-10T23:20:58.739Z,93.23
2023-03-10T23:23:44.608Z,93.89
2023-03-10T23:26:30.462Z,95.17
2023-03-10T23:29:16.408Z,94.12
2023-03-10T23:32:02.101Z,92.77
2023-03-10T23:34:47.930Z,93.81
2023-03-10T23:37:33.759Z,92.84
2023-03-10T23:40:19.676Z,93.63
2023-03-10T23:43:05.662Z,91.97
2023-03-10T23:45:51.447Z,95.05
2023-03-10T23:48:37.314Z,93.32
2023-03-10T23:51:23.248Z,92.71
2023-03-10T23:54:09.104Z,91.80
2023-03-10T23:56:54.881Z,89.61
2023-03-10T23:59:40.691Z,92.55
